CAVOK!!

LUXURY FLIGHT

03-6423-7371

羽田本店:東京都大田区羽田5-11-1
営業時間:10:00~20:00
定休日:毎週 月曜日
セントレア店:愛知県常滑市セントレア1-1
営業時間:10:00~20:00 年中無休

lv

CAVOK!!

STAFF BLOG

2019/05/11 CAVOK!!

グッモーニン!!

 

今日の羽田はよく晴れています

 

あっ、でもちょっと蒸し暑い気が

 

そんなMETARは…

RJTT 110030Z 09004KT CAVOK 20/15 Q1014 NOSIG RMK A2995

 

出ました!!

 

CAVOK

 

天気が良い証ですね

 

 

詳細が気になる方は、是非ご自身で「METAR CAVOK」なーんてググってみてくださーーい

 

 

さてさて、今日のゲストは

パイロットを本気で志す、男前な大学生

img_1332

ラグビーで鍛えたガッチリとした体に、トイプードルみたいな優しい目と爽やかな笑顔。

 

まさに笑顔もCAVOK

 

私が女だったら告ってます。笑

パイロットになりたいと本気で思う人には、本気で応えるのがラグフラ流のやり方。

 

通常よりもやや深めの話をしつつも、楽しむ事を最優先にフライトさせてもらいました

 

慣れない事をするので当然ですが、

 

最初はかなり大きいコントロールをしてしまい、機体が不安定な状況に…

 

しかし、彼は何がダメなのかを自分なりに考えたのか、即座に修正し機体が安定し出します。

 

人に言われる前に、自分から答えを見つけ出しに行く姿勢

 

このマインドはまさにパイロットなのではないかと…   なんちって。

 

きっとパイロットになった未来では、人から慕われ、人が集まり、一目置かれるパイロットになれるのではないかと

 

私個人が勝手に思っている次第です。

 

今後の人生、大活躍してくださーーーーい

 

 

 

この度はご来店誠にありがとうございました。

 

次回のご来店も心より楽しみに致しております。

 

 

「感謝」

TOP